Time;durP1;ratioP1;P1;durP2;ratioP2;P2;SDS_P1;SDS_P2;PMS_P1;PMS_P2;Temp;Humidity;BMP_temperature;BMP_pressure;BME280_temperature;BME280_humidity;BME280_pressure;Samples;Min_cycle;Max_cycle;Signal;HPM_P1;HPM_P2
2022/10/13 00:00:23;;;;;;;225.55;167.50;;;;;;;11.09;67.03;100260.34;5054288;28;20044;-72
2022/10/13 00:02:48;;;;;;;186.25;138.85;;;;;;;11.43;65.50;100269.28;5049215;28;20048;-71
2022/10/13 00:05:14;;;;;;;58.28;39.05;;;;;;;11.49;65.08;100275.59;5054005;28;20090;-71
2022/10/13 00:07:40;;;;;;;36.42;22.60;;;;;;;11.59;64.95;100271.66;5038123;28;20480;-71
2022/10/13 00:10:06;;;;;;;42.17;24.70;;;;;;;11.00;65.43;100270.66;5048713;28;20022;-71
2022/10/13 00:12:35;;;;;;;78.85;50.58;;;;;;;11.27;65.27;100271.66;5034127;28;20021;-71
2022/10/13 00:15:00;;;;;;;56.53;38.60;;;;;;;11.27;65.33;100266.06;5033890;28;20091;-71
2022/10/13 00:17:26;;;;;;;33.13;19.20;;;;;;;10.80;66.91;100277.59;5036455;28;20448;-71
2022/10/13 00:19:51;;;;;;;26.92;16.17;;;;;;;10.52;67.80;100264.53;5053840;28;20091;-71
2022/10/13 00:22:17;;;;;;;25.35;15.70;;;;;;;10.38;68.49;100267.31;5053826;28;20468;-71
2022/10/13 00:24:42;;;;;;;29.80;16.30;;;;;;;10.06;69.05;100273.91;5053803;28;20032;-71
2022/10/13 00:27:08;;;;;;;33.22;17.15;;;;;;;9.90;69.64;100257.47;5052111;28;20079;-71
2022/10/13 00:29:33;;;;;;;30.95;16.65;;;;;;;9.91;70.29;100258.28;5053351;28;20036;-71
2022/10/13 00:31:59;;;;;;;29.98;17.42;;;;;;;9.92;70.35;100251.53;5044049;28;20366;-71
2022/10/13 00:34:24;;;;;;;25.05;17.23;;;;;;;10.17;69.90;100260.53;5033431;28;20028;-71
2022/10/13 00:36:50;;;;;;;39.03;19.27;;;;;;;10.43;69.05;100258.03;5033691;28;20079;-71
2022/10/13 00:39:15;;;;;;;34.38;16.90;;;;;;;10.40;69.10;100259.44;5050800;28;20469;-71
2022/10/13 00:41:41;;;;;;;29.27;16.58;;;;;;;10.33;68.70;100255.44;5051932;28;20051;-71
2022/10/13 00:44:44;;;;;;;25.35;15.10;;;;;;;9.90;71.51;100257.47;5053331;28;20029;-71
2022/10/13 00:47:10;;;;;;;24.60;15.70;;;;;;;9.83;72.34;100251.47;5039568;28;20045;-71
2022/10/13 00:49:36;;;;;;;30.20;18.05;;;;;;;10.17;70.68;100246.53;5033279;28;20025;-71
2022/10/13 00:52:01;;;;;;;26.77;16.42;;;;;;;10.00;72.09;100247.19;5048629;28;20025;-72
2022/10/13 00:54:28;;;;;;;26.52;16.52;;;;;;;9.79;73.17;100244.84;5052969;28;20112;-71
2022/10/13 00:56:54;;;;;;;28.85;17.67;;;;;;;9.51;74.31;100240.06;5035534;28;20074;-71
2022/10/13 00:59:25;;;;;;;34.47;18.40;;;;;;;9.45;74.92;100246.06;5032788;28;20100;-71
2022/10/13 01:01:51;;;;;;;28.25;18.30;;;;;;;9.63;73.58;100244.31;5033096;28;20029;-71
2022/10/13 01:04:21;;;;;;;26.95;16.20;;;;;;;9.82;72.83;100242.22;5031853;28;20017;-71
2022/10/13 01:06:48;;;;;;;31.67;17.10;;;;;;;10.11;71.39;100243.88;5038191;28;20021;-71
2022/10/13 01:09:13;;;;;;;31.13;15.73;;;;;;;10.27;70.55;100237.13;5049210;28;20033;-72
2022/10/13 01:11:54;;;;;;;24.70;15.27;;;;;;;10.42;69.85;100247.97;5051666;28;20041;-71
2022/10/13 01:14:37;;;;;;;28.13;16.85;;;;;;;10.50;69.27;100244.44;5051691;28;20044;-71
2022/10/13 01:17:12;;;;;;;30.83;15.90;;;;;;;10.61;68.75;100244.19;5052634;28;20047;-71
2022/10/13 01:19:59;;;;;;;23.05;14.93;;;;;;;10.52;68.77;100232.91;5031956;28;20036;-71
2022/10/13 01:22:47;;;;;;;27.58;16.60;;;;;;;10.25;69.41;100232.66;5032727;28;20025;-71
2022/10/13 01:25:46;;;;;;;29.42;16.02;;;;;;;10.30;68.70;100231.72;5032792;28;20018;-71
2022/10/13 01:28:40;;;;;;;29.05;17.02;;;;;;;10.27;69.38;100235.13;5037401;28;20040;-71
2022/10/13 01:31:19;;;;;;;28.20;15.85;;;;;;;9.97;70.75;100232.69;5035873;28;20053;-71
2022/10/13 01:34:01;;;;;;;26.95;16.40;;;;;;;10.11;70.34;100232.69;5032419;28;20017;-72
2022/10/13 01:36:37;;;;;;;32.05;17.83;;;;;;;10.01;70.14;100237.66;5033577;28;20037;-71
2022/10/13 01:39:13;;;;;;;35.25;18.35;;;;;;;9.85;71.26;100232.41;5032239;28;20029;-71
2022/10/13 01:41:43;;;;;;;28.52;18.20;;;;;;;9.74;71.66;100228.16;5032420;28;20021;-71
2022/10/13 01:44:26;;;;;;;27.40;17.50;;;;;;;9.40;72.77;100231.03;5032267;28;20036;-72
2022/10/13 01:46:53;;;;;;;29.30;18.08;;;;;;;9.06;73.32;100226.66;5032051;28;20132;-71
2022/10/13 01:49:23;;;;;;;32.58;19.60;;;;;;;9.12;74.42;100225.44;5032056;28;20025;-71
2022/10/13 01:51:50;;;;;;;32.58;18.40;;;;;;;9.34;72.98;100226.72;5046149;28;20029;-71
2022/10/13 01:54:16;;;;;;;37.00;18.38;;;;;;;9.65;72.26;100226.13;5052148;28;20545;-72
2022/10/13 01:56:50;;;;;;;35.30;19.17;;;;;;;9.22;73.04;100218.81;5051841;28;20033;-71
2022/10/13 01:59:15;;;;;;;28.38;18.10;;;;;;;9.18;73.50;100216.97;5034959;28;20052;-71
2022/10/13 02:01:46;;;;;;;36.60;20.10;;;;;;;9.48;72.11;100220.31;5031969;28;20029;-71
2022/10/13 02:04:37;;;;;;;38.67;20.52;;;;;;;9.62;71.73;100223.94;5032051;28;20025;-71
2022/10/13 02:07:12;;;;;;;27.98;17.67;;;;;;;9.58;71.86;100208.94;5046191;28;20028;-71
2022/10/13 02:09:47;;;;;;;24.38;15.02;;;;;;;9.67;71.55;100223.00;5038337;28;20143;-71
2022/10/13 02:12:33;;;;;;;24.30;14.95;;;;;;;9.43;72.32;100220.41;5048128;28;20424;-71
2022/10/13 02:15:00;;;;;;;24.27;15.35;;;;;;;9.47;72.09;100208.31;5031965;28;20025;-71
2022/10/13 02:17:27;;;;;;;29.38;15.65;;;;;;;9.36;73.28;100210.47;5033582;28;20036;-71
2022/10/13 02:19:54;;;;;;;25.08;15.27;;;;;;;9.52;72.01;100218.53;5051693;28;20104;-71
2022/10/13 02:22:23;;;;;;;36.90;16.13;;;;;;;9.29;72.04;100209.22;5051811;28;20532;-71
2022/10/13 02:24:48;;;;;;;27.08;16.00;;;;;;;8.99;73.58;100217.84;5034610;28;20029;-71
2022/10/13 02:27:14;;;;;;;24.48;14.68;;;;;;;8.63;76.24;100213.72;5031200;28;20029;-70
2022/10/13 02:29:55;;;;;;;27.45;16.70;;;;;;;8.44;77.96;100210.91;5051419;28;20029;-71
2022/10/13 02:32:21;;;;;;;28.10;16.58;;;;;;;8.34;78.71;100209.09;5051514;28;20016;-71
2022/10/13 02:34:46;;;;;;;26.25;16.38;;;;;;;8.21;79.85;100212.66;5043955;28;20496;-71
2022/10/13 02:37:12;;;;;;;29.17;17.13;;;;;;;8.42;78.52;100218.75;5032998;28;20600;-71
2022/10/13 02:39:38;;;;;;;26.45;16.75;;;;;;;8.37;78.80;100210.47;5031401;28;20147;-71
2022/10/13 02:42:04;;;;;;;28.42;15.93;;;;;;;8.31;79.07;100211.66;5032535;28;20583;-71
2022/10/13 02:44:29;;;;;;;25.15;16.50;;;;;;;8.32;79.35;100216.09;5031769;28;20056;-71
2022/10/13 02:46:55;;;;;;;27.17;16.27;;;;;;;8.25;79.50;100203.38;5030020;28;20496;-71
2022/10/13 02:49:20;;;;;;;30.73;16.48;;;;;;;8.42;78.61;100207.59;5048344;28;20025;-71
2022/10/13 02:51:46;;;;;;;24.77;15.40;;;;;;;8.53;78.89;100216.66;5051475;28;20017;-71
2022/10/13 02:54:11;;;;;;;29.55;16.17;;;;;;;8.50;78.39;100206.94;5051196;28;20146;-71
2022/10/13 02:56:37;;;;;;;26.20;16.38;;;;;;;8.72;77.69;100208.28;5047863;28;20036;-71
2022/10/13 02:59:03;;;;;;;22.23;14.98;;;;;;;9.03;76.67;100207.72;5050346;28;20032;-71
2022/10/13 03:01:28;;;;;;;25.98;15.52;;;;;;;9.18;75.22;100211.41;5050075;28;20112;-71
2022/10/13 03:03:54;;;;;;;27.30;16.83;;;;;;;9.32;74.58;100208.59;5051276;28;20120;-71
2022/10/13 03:06:19;;;;;;;29.52;15.02;;;;;;;9.53;73.38;100203.44;5048179;28;20036;-71
2022/10/13 03:08:45;;;;;;;23.50;14.60;;;;;;;9.44;73.32;100213.69;5042777;28;20079;-71
2022/10/13 03:11:10;;;;;;;24.58;15.77;;;;;;;9.31;73.96;100204.16;5054126;28;20021;-71
2022/10/13 03:13:36;;;;;;;27.25;17.17;;;;;;;9.17;74.82;100206.91;5055123;28;20048;-71
2022/10/13 03:16:02;;;;;;;21.90;14.15;;;;;;;8.93;76.53;100205.94;5055087;28;20430;-71
2022/10/13 03:18:28;;;;;;;24.80;15.95;;;;;;;8.76;77.67;100200.94;5053878;28;20029;-71
2022/10/13 03:20:58;;;;;;;23.23;14.75;;;;;;;8.51;78.40;100200.22;5054189;28;20024;-70
2022/10/13 03:23:24;;;;;;;;;;;;;;;8.53;78.33;100200.75;5054025;28;20032;-71
2022/10/13 03:25:49;;;;;;;30.05;15.93;;;;;;;8.37;79.41;100199.31;5054863;28;19939;-71
2022/10/13 03:28:15;;;;;;;33.40;16.10;;;;;;;8.18;80.65;100202.91;5053179;28;20028;-71
2022/10/13 03:30:40;;;;;;;26.17;15.93;;;;;;;8.09;81.13;100194.41;5054765;28;20468;-71
2022/10/13 03:33:05;;;;;;;25.45;15.23;;;;;;;8.25;81.71;100203.38;5052990;28;20483;-71
2022/10/13 03:35:31;;;;;;;32.25;16.02;;;;;;;8.31;80.93;100200.50;5038077;28;20483;-71
2022/10/13 03:37:57;;;;;;;26.30;16.25;;;;;;;8.32;81.12;100199.38;5051064;28;20467;-71
2022/10/13 03:40:23;;;;;;;24.92;15.73;;;;;;;8.24;80.88;100195.31;5041900;28;20045;-71
2022/10/13 03:42:48;;;;;;;31.30;17.05;;;;;;;8.25;81.30;100202.53;5048750;28;20037;-71
2022/10/13 03:45:14;;;;;;;26.67;16.60;;;;;;;8.23;81.37;100199.22;5054271;28;20057;-71
2022/10/13 03:47:39;;;;;;;25.98;16.67;;;;;;;8.23;81.65;100200.06;5043513;28;20025;-71
2022/10/13 03:50:05;;;;;;;28.13;16.15;;;;;;;8.30;81.28;100205.28;5042505;28;20087;-73
2022/10/13 03:52:31;;;;;;;26.38;15.85;;;;;;;8.32;80.34;100202.16;5034400;28;20468;-71
2022/10/13 03:54:57;;;;;;;24.52;15.68;;;;;;;8.34;80.25;100199.94;5033089;28;20029;-71
2022/10/13 03:57:22;;;;;;;26.50;15.73;;;;;;;8.35;80.91;100196.00;5034231;28;20018;-73
2022/10/13 03:59:47;;;;;;;30.60;16.55;;;;;;;8.55;79.63;100204.06;5052854;28;20029;-71
2022/10/13 04:02:13;;;;;;;33.83;15.27;;;;;;;8.54;79.49;100196.81;5054342;28;20032;-73
2022/10/13 04:04:38;;;;;;;32.60;16.27;;;;;;;8.66;79.57;100207.53;5052563;28;20517;-75
2022/10/13 04:07:06;;;;;;;28.90;16.70;;;;;;;8.49;79.41;100201.63;5054708;28;20404;-74
2022/10/13 04:09:31;;;;;;;28.30;15.80;;;;;;;8.44;80.38;100205.31;5036385;28;20040;-75
2022/10/13 04:11:58;;;;;;;34.33;18.63;;;;;;;8.46;80.01;100203.09;5033889;28;20111;-74
2022/10/13 04:14:23;;;;;;;32.72;18.38;;;;;;;8.33;80.42;100206.63;5033915;28;20155;-72
2022/10/13 04:16:48;;;;;;;58.10;18.20;;;;;;;8.19;81.47;100210.16;5034097;28;20033;-74
2022/10/13 04:19:14;;;;;;;30.30;18.48;;;;;;;8.17;81.71;100212.41;5033197;28;20056;-73
2022/10/13 04:21:41;;;;;;;38.78;21.20;;;;;;;8.20;81.49;100216.56;5032716;28;20025;-73
2022/10/13 04:24:08;;;;;;;37.03;21.30;;;;;;;8.22;81.22;100215.16;5033909;28;20030;-72
2022/10/13 04:26:35;;;;;;;33.58;19.08;;;;;;;8.34;81.47;100209.09;5033857;28;20032;-74
2022/10/13 04:29:03;;;;;;;32.72;17.73;;;;;;;8.48;80.67;100209.19;5048092;28;20033;-74
2022/10/13 04:31:30;;;;;;;29.40;17.75;;;;;;;8.49;80.53;100205.25;5033885;28;20416;-73
2022/10/13 04:33:56;;;;;;;29.20;18.00;;;;;;;8.58;80.16;100199.84;5048523;28;20480;-74
2022/10/13 04:36:22;;;;;;;114.50;22.45;;;;;;;8.80;79.27;100198.38;5051823;28;20112;-73
2022/10/13 04:38:48;;;;;;;43.83;18.73;;;;;;;8.92;78.36;100190.34;5051495;28;20128;-73
2022/10/13 04:41:15;;;;;;;32.83;17.38;;;;;;;8.92;78.52;100200.66;5053040;28;20103;-76
2022/10/13 04:43:41;;;;;;;33.05;18.55;;;;;;;8.70;79.47;100199.38;5052750;28;20028;-82
2022/10/13 04:46:11;;;;;;;35.70;19.23;;;;;;;8.79;78.64;100200.31;5041418;28;20076;-79
2022/10/13 04:48:37;;;;;;;37.35;20.33;;;;;;;8.88;78.90;100216.38;5040850;28;20467;-72
2022/10/13 04:51:05;;;;;;;44.03;23.35;;;;;;;8.81;78.16;100192.50;5039688;28;20033;-72
2022/10/13 04:53:31;;;;;;;42.30;22.58;;;;;;;8.96;78.66;100210.09;5037016;28;20025;-78
2022/10/13 04:56:02;;;;;;;31.30;19.95;;;;;;;9.01;78.23;100198.03;5039538;28;20558;-77
2022/10/13 04:58:28;;;;;;;36.30;19.50;;;;;;;8.88;78.86;100210.78;5042137;28;20464;-77
2022/10/13 05:00:53;;;;;;;27.83;17.10;;;;;;;8.78;79.48;100204.25;5040862;28;20109;-77
2022/10/13 05:03:19;;;;;;;35.50;18.30;;;;;;;8.59;81.64;100211.84;5031407;28;20033;-77
2022/10/13 05:05:44;;;;;;;28.08;17.00;;;;;;;8.64;81.19;100209.78;5034428;28;20040;-76
2022/10/13 05:08:10;;;;;;;33.47;20.40;;;;;;;8.70;81.18;100210.53;5051095;28;20036;-77
2022/10/13 05:10:35;;;;;;;37.17;23.30;;;;;;;8.70;80.56;100208.56;5052197;28;20487;-77
2022/10/13 05:13:01;;;;;;;40.08;22.70;;;;;;;8.81;80.73;100203.66;5052070;28;20088;-76
2022/10/13 05:15:26;;;;;;;38.85;22.38;;;;;;;9.08;79.17;100212.38;5038435;28;20033;-76
2022/10/13 05:17:52;;;;;;;42.47;20.92;;;;;;;9.12;78.24;100208.69;5032023;28;20032;-77
2022/10/13 05:20:17;;;;;;;36.00;20.67;;;;;;;9.21;77.92;100207.97;5051054;28;20039;-76
2022/10/13 05:22:43;;;;;;;42.25;24.75;;;;;;;9.19;77.60;100211.06;5042235;28;20071;-76
2022/10/13 05:25:08;;;;;;;59.17;37.30;;;;;;;8.96;78.06;100212.91;5047966;28;20545;-76
2022/10/13 05:27:34;;;;;;;67.60;36.30;;;;;;;8.83;78.59;100220.91;5044993;28;20503;-77
2022/10/13 05:29:59;;;;;;;66.65;30.75;;;;;;;8.67;79.49;100209.19;5031554;28;20040;-77
2022/10/13 05:32:25;;;;;;;71.95;41.85;;;;;;;8.82;79.14;100215.63;5037997;28;20036;-77
2022/10/13 05:34:50;;;;;;;82.18;50.38;;;;;;;8.70;79.10;100222.50;5038566;28;20033;-75
2022/10/13 05:37:17;;;;;;;60.97;38.00;;;;;;;8.54;79.82;100230.28;5037377;28;20037;-76
2022/10/13 05:39:43;;;;;;;50.65;30.08;;;;;;;8.51;80.34;100233.69;5044727;28;20419;-76
2022/10/13 05:42:09;;;;;;;50.97;33.70;;;;;;;8.63;80.27;100237.97;5036555;28;20029;-76
2022/10/13 05:44:36;;;;;;;46.78;25.40;;;;;;;8.64;79.50;100234.91;5031884;28;20047;-76
2022/10/13 05:47:02;;;;;;;37.72;23.45;;;;;;;8.62;79.47;100241.91;5035023;28;20731;-76
2022/10/13 05:49:27;;;;;;;45.58;24.15;;;;;;;8.62;80.21;100241.91;5037884;28;20120;-76
2022/10/13 05:51:58;;;;;;;46.50;24.30;;;;;;;8.75;80.37;100241.13;5033237;28;20524;-76
2022/10/13 05:54:28;;;;;;;44.63;21.70;;;;;;;8.90;79.77;100244.78;5035354;28;20053;-73
2022/10/13 05:57:00;;;;;;;;;;;;;;;9.01;80.35;100237.91;5033411;28;20033;-73
2022/10/13 05:59:28;;;;;;;31.58;18.45;;;;;;;9.23;78.92;100239.19;5038977;28;19913;-76
2022/10/13 06:01:54;;;;;;;39.35;19.85;;;;;;;9.36;79.48;100241.19;5033601;28;20215;-75
2022/10/13 06:04:24;;;;;;;53.85;26.13;;;;;;;9.36;79.35;100241.19;5036606;28;20120;-75
2022/10/13 06:06:50;;;;;;;44.80;23.60;;;;;;;9.59;78.87;100238.53;5032451;28;20037;-74
2022/10/13 06:09:16;;;;;;;45.92;24.20;;;;;;;9.64;78.28;100240.38;5031144;28;20029;-75
2022/10/13 06:11:42;;;;;;;30.25;18.30;;;;;;;9.68;79.38;100244.22;5041787;28;20043;-75
2022/10/13 06:14:07;;;;;;;27.20;17.92;;;;;;;9.82;78.97;100236.66;5047411;28;20029;-75
2022/10/13 06:16:35;;;;;;;115.13;70.25;;;;;;;9.88;79.92;100242.94;5036343;28;20025;-72
2022/10/13 06:19:01;;;;;;;104.47;66.85;;;;;;;9.97;79.89;100234.69;5030566;28;20040;-73
2022/10/13 06:21:27;;;;;;;74.25;47.20;;;;;;;9.95;80.24;100240.56;5035152;28;20033;-73
2022/10/13 06:23:52;;;;;;;40.58;26.73;;;;;;;10.17;79.38;100239.00;5035490;28;20503;-72
2022/10/13 06:26:18;;;;;;;36.97;19.58;;;;;;;10.46;78.74;100237.81;5032713;28;20044;-76
2022/10/13 06:28:43;;;;;;;42.10;25.67;;;;;;;10.62;77.77;100234.66;5033634;28;20492;-73
2022/10/13 06:31:09;;;;;;;41.20;27.90;;;;;;;10.57;77.39;100237.56;5027532;28;20115;-72
2022/10/13 06:33:34;;;;;;;47.80;26.65;;;;;;;10.75;77.00;100233.78;5029203;28;20068;-73
2022/10/13 06:36:03;;;;;;;46.58;26.88;;;;;;;10.52;76.15;100224.53;5032892;28;20028;-74
2022/10/13 06:38:28;;;;;;;33.83;18.70;;;;;;;10.75;75.56;100225.38;5035665;28;20029;-73
2022/10/13 06:40:54;;;;;;;30.30;19.80;;;;;;;11.01;74.17;100240.69;5032028;28;20021;-77
2022/10/13 06:43:19;;;;;;;36.83;21.15;;;;;;;11.31;73.20;100233.47;5032854;28;20467;-75
2022/10/13 06:45:44;;;;;;;42.25;30.20;;;;;;;11.39;71.79;100234.66;5036185;28;20049;-75
2022/10/13 06:48:10;;;;;;;22.92;16.63;;;;;;;11.49;70.24;100239.97;5034622;28;20017;-74
2022/10/13 06:50:35;;;;;;;22.98;13.85;;;;;;;11.55;69.90;100226.66;5040918;28;20032;-74
2022/10/13 06:53:01;;;;;;;19.92;12.38;;;;;;;11.73;68.47;100226.72;5041048;28;20036;-74
2022/10/13 06:55:26;;;;;;;19.75;11.57;;;;;;;11.89;68.07;100233.53;5037867;28;20456;-73
2022/10/13 06:57:52;;;;;;;24.08;13.57;;;;;;;12.10;67.15;100232.13;5032390;28;20518;-74
2022/10/13 07:00:17;;;;;;;30.15;12.82;;;;;;;11.85;68.46;100229.75;5035395;28;20025;-75
2022/10/13 07:02:43;;;;;;;31.52;14.20;;;;;;;11.74;68.90;100226.38;5038112;28;20021;-76
2022/10/13 07:05:08;;;;;;;20.10;12.23;;;;;;;11.77;69.39;100222.97;5043187;28;20031;-74
2022/10/13 07:07:34;;;;;;;44.92;13.07;;;;;;;12.07;68.60;100220.41;5040520;28;20031;-73
2022/10/13 07:09:59;;;;;;;26.05;12.75;;;;;;;11.98;68.62;100216.72;5036000;28;20025;-73
2022/10/13 07:12:25;;;;;;;18.50;12.75;;;;;;;12.20;67.85;100207.41;5040878;28;20965;-71
2022/10/13 07:14:50;;;;;;;30.15;13.75;;;;;;;12.26;68.06;100212.84;5036460;28;20409;-71
2022/10/13 07:17:15;;;;;;;38.72;14.35;;;;;;;12.38;67.58;100223.44;5037297;28;20052;-72
2022/10/13 07:19:41;;;;;;;31.83;14.15;;;;;;;12.62;66.32;100214.50;5038821;28;20028;-72
2022/10/13 07:22:06;;;;;;;27.13;13.77;;;;;;;12.43;66.82;100212.03;5035203;28;20024;-72
2022/10/13 07:24:32;;;;;;;22.23;13.35;;;;;;;12.57;66.00;100215.50;5037646;28;20029;-71
2022/10/13 07:26:57;;;;;;;30.95;15.00;;;;;;;12.72;66.27;100216.16;5038314;28;20029;-71
2022/10/13 07:29:23;;;;;;;26.23;14.68;;;;;;;12.95;64.81;100221.56;5035817;28;20022;-71
2022/10/13 07:31:48;;;;;;;26.50;15.68;;;;;;;13.00;64.08;100213.00;5040829;28;20029;-72
2022/10/13 07:34:14;;;;;;;25.08;13.88;;;;;;;12.92;63.95;100209.84;5038202;28;20087;-71
2022/10/13 07:36:40;;;;;;;25.65;13.57;;;;;;;12.99;63.48;100211.34;5038939;28;20057;-71
2022/10/13 07:39:09;;;;;;;22.55;13.63;;;;;;;12.81;64.44;100211.34;5037209;28;20581;-72
2022/10/13 07:41:37;;;;;;;25.70;14.55;;;;;;;12.62;64.92;100203.28;5036406;28;20048;-71
2022/10/13 07:44:03;;;;;;;36.28;16.40;;;;;;;12.79;65.08;100202.44;5034561;28;20104;-72
2022/10/13 07:46:29;;;;;;;30.90;16.77;;;;;;;12.99;64.39;100189.69;5046070;28;20095;-71
2022/10/13 07:48:54;;;;;;;56.78;16.45;;;;;;;13.06;63.86;100197.59;5038910;28;20029;-72
2022/10/13 07:51:21;;;;;;;34.17;15.73;;;;;;;13.06;64.29;100191.97;5035670;28;20028;-72
2022/10/13 07:53:47;;;;;;;42.20;17.60;;;;;;;13.20;64.20;100203.03;5036141;28;20115;-72
2022/10/13 07:56:14;;;;;;;41.38;17.48;;;;;;;13.25;63.29;100191.59;5033081;28;20154;-71
2022/10/13 07:58:44;;;;;;;36.13;14.68;;;;;;;13.50;63.36;100197.47;5039662;28;20103;-71
2022/10/13 08:01:09;;;;;;;27.20;15.40;;;;;;;13.82;62.10;100200.00;5037902;28;20479;-73
2022/10/13 08:03:35;;;;;;;21.30;12.77;;;;;;;13.78;61.61;100188.59;5038495;28;20029;-72
2022/10/13 08:06:03;;;;;;;24.33;14.18;;;;;;;13.75;62.59;100190.09;5038286;28;20029;-72
2022/10/13 08:08:29;;;;;;;33.85;13.82;;;;;;;13.40;63.24;100178.19;5033284;28;20040;-72
2022/10/13 08:10:59;;;;;;;19.73;9.40;;;;;;;13.82;62.86;100169.06;5036176;28;20120;-71
2022/10/13 08:13:24;;;;;;;20.80;10.90;;;;;;;14.26;60.39;100165.94;5036403;28;20471;-71
2022/10/13 08:15:50;;;;;;;18.17;9.27;;;;;;;14.76;59.68;100169.03;5041618;28;20042;-71
2022/10/13 08:18:15;;;;;;;13.27;8.63;;;;;;;14.37;60.03;100164.38;5046921;28;20025;-71
2022/10/13 08:20:42;;;;;;;14.05;9.95;;;;;;;14.79;58.92;100168.31;5051460;28;20016;-71
2022/10/13 08:23:08;;;;;;;13.73;8.70;;;;;;;15.10;58.12;100152.91;5036375;28;20029;-73
2022/10/13 08:25:42;;;;;;;17.80;9.60;;;;;;;15.42;58.01;100164.44;5031526;28;20440;-73
2022/10/13 08:28:23;;;;;;;14.45;9.25;;;;;;;15.43;56.78;100160.44;5033606;28;20060;-73
2022/10/13 08:30:56;;;;;;;16.38;10.27;;;;;;;15.58;56.66;100147.66;5031119;28;20026;-72
2022/10/13 08:33:23;;;;;;;14.52;8.02;;;;;;;16.00;55.62;100152.22;5033575;28;20025;-72
2022/10/13 08:35:48;;;;;;;11.68;8.00;;;;;;;16.06;52.97;100147.16;5033176;28;20496;-72
2022/10/13 08:38:14;;;;;;;20.35;8.68;;;;;;;16.33;51.97;100148.41;5034329;28;20025;-74
2022/10/13 08:40:40;;;;;;;16.27;9.05;;;;;;;16.57;51.32;100149.47;5033112;28;20029;-70
2022/10/13 08:43:07;;;;;;;14.95;8.65;;;;;;;16.21;52.38;100149.25;5059317;28;20024;-69
2022/10/13 08:45:34;;;;;;;13.90;9.18;;;;;;;16.32;53.31;100158.03;5032780;28;20115;-72
2022/10/13 08:48:04;;;;;;;13.60;9.18;;;;;;;16.48;53.09;100149.66;5044780;28;20576;-70
2022/10/13 08:50:37;;;;;;;12.93;9.38;;;;;;;16.74;52.12;100150.34;5052729;28;20053;-76
2022/10/13 08:53:34;;;;;;;12.38;9.55;;;;;;;17.07;51.60;100149.25;5042153;28;20024;-74
2022/10/13 08:56:07;;;;;;;16.13;10.27;;;;;;;17.45;50.99;100153.47;5034223;28;20065;-72
2022/10/13 08:58:34;;;;;;;13.27;10.57;;;;;;;17.45;50.53;100150.63;5032579;28;20156;-75
2022/10/13 09:01:09;;;;;;;18.40;10.18;;;;;;;17.50;51.53;100152.38;5034901;28;20535;-75
2022/10/13 09:03:54;;;;;;;24.17;9.55;;;;;;;17.81;50.26;100140.19;5040945;28;20406;-73
2022/10/13 09:06:38;;;;;;;13.27;8.52;;;;;;;17.12;51.55;100138.50;5040871;28;20024;-75
2022/10/13 09:09:15;;;;;;;15.35;9.35;;;;;;;17.70;50.78;100144.75;5030562;28;20036;-77
2022/10/13 09:11:43;;;;;;;17.98;9.50;;;;;;;18.01;49.70;100133.75;5031295;28;20085;-73
2022/10/13 09:14:22;;;;;;;13.85;8.50;;;;;;;17.97;50.56;100130.81;5031502;28;20033;-73
2022/10/13 09:16:48;;;;;;;17.20;10.10;;;;;;;18.05;49.64;100126.19;5035415;28;20450;-71
2022/10/13 09:19:37;;;;;;;14.07;9.70;;;;;;;17.42;50.67;100127.91;5032171;28;20033;-73
2022/10/13 09:22:14;;;;;;;14.25;10.25;;;;;;;17.42;51.67;100125.09;5044610;28;20048;-73
2022/10/13 09:24:40;;;;;;;21.63;10.35;;;;;;;17.60;50.88;100134.00;5036932;28;20033;-71
2022/10/13 09:27:11;;;;;;;18.50;10.25;;;;;;;17.22;51.81;100136.31;5031909;28;20054;-73
2022/10/13 09:29:37;;;;;;;13.45;10.07;;;;;;;17.30;51.64;100124.00;5039593;28;20037;-73
2022/10/13 09:32:14;;;;;;;13.07;10.18;;;;;;;17.60;51.85;100122.69;5033355;28;20033;-73
2022/10/13 09:34:39;;;;;;;11.77;9.10;;;;;;;17.79;50.91;100117.09;5030805;28;20159;-74
2022/10/13 09:37:15;;;;;;;13.43;9.70;;;;;;;17.64;51.34;100117.97;5031156;28;20028;-73
2022/10/13 09:39:41;;;;;;;17.10;10.50;;;;;;;17.63;51.35;100110.66;5047528;28;20086;-71
2022/10/13 09:42:18;;;;;;;18.42;11.43;;;;;;;17.94;50.63;100104.09;5044395;28;20489;-71
2022/10/13 09:44:45;;;;;;;19.55;12.30;;;;;;;18.27;50.04;100101.16;5043242;28;20466;-69
2022/10/13 09:47:19;;;;;;;15.82;10.05;;;;;;;18.17;50.29;100089.25;5047954;28;20527;-70
2022/10/13 09:49:45;;;;;;;15.45;10.80;;;;;;;18.48;50.20;100087.44;5048753;28;20029;-70
2022/10/13 09:52:10;;;;;;;16.38;11.55;;;;;;;18.75;49.17;100092.41;5032649;28;20025;-73
2022/10/13 09:54:42;;;;;;;16.73;9.98;;;;;;;18.85;48.37;100086.13;5033953;28;20029;-72
2022/10/13 09:57:34;;;;;;;16.20;11.27;;;;;;;18.84;48.62;100083.66;5030948;28;20060;-76
2022/10/13 10:00:03;;;;;;;19.20;11.88;;;;;;;18.97;48.33;100073.78;5030087;28;20052;-74
2022/10/13 10:02:43;;;;;;;16.20;11.38;;;;;;;18.69;49.31;100071.22;5031619;28;20059;-72
2022/10/13 10:05:25;;;;;;;20.83;11.82;;;;;;;19.05;48.14;100057.72;5027638;28;20032;-75
2022/10/13 10:07:51;;;;;;;18.52;10.57;;;;;;;19.42;47.45;100054.28;5032146;28;20475;-77
2022/10/13 10:10:32;;;;;;;18.10;11.05;;;;;;;19.33;46.50;100050.91;5027462;28;20035;-75
2022/10/13 10:12:59;;;;;;;16.83;11.38;;;;;;;19.52;46.19;100049.16;5030026;28;20056;-76
2022/10/13 10:15:55;;;;;;;27.70;15.63;;;;;;;19.49;46.36;100047.91;5028688;28;20061;-74
2022/10/13 10:18:42;;;;;;;22.17;17.67;;;;;;;19.83;45.96;100027.31;5048757;28;20517;-78
2022/10/13 10:21:17;;;;;;;138.77;104.85;;;;;;;20.22;45.34;100044.03;5047161;28;20025;-71
2022/10/13 10:23:50;;;;;;;18.27;13.65;;;;;;;20.30;44.31;100020.22;5043002;28;20037;-74
2022/10/13 10:26:53;;;;;;;17.58;12.15;;;;;;;20.42;44.89;100024.00;5031197;28;20033;-75
2022/10/13 10:29:32;;;;;;;21.92;12.23;;;;;;;20.40;44.42;100015.03;5028048;28;20045;-75
2022/10/13 10:32:00;;;;;;;13.00;10.25;;;;;;;20.41;44.25;100014.63;5031545;28;20028;-75
2022/10/13 10:34:28;;;;;;;21.05;11.55;;;;;;;20.59;44.41;100008.34;5036784;28;20029;-75
2022/10/13 10:37:15;;;;;;;25.40;10.95;;;;;;;20.78;44.40;100012.97;5034354;28;20033;-75
2022/10/13 10:40:02;;;;;;;26.65;12.52;;;;;;;20.77;43.51;99999.97;5027985;28;20406;-75
2022/10/13 10:42:48;;;;;;;15.43;9.82;;;;;;;20.54;43.10;100005.84;5034269;28;20064;-75
2022/10/13 10:45:21;;;;;;;40.03;29.15;;;;;;;20.44;43.65;99998.84;5043194;28;20064;-75
2022/10/13 10:47:52;;;;;;;12.75;8.73;;;;;;;20.58;42.43;99995.34;5047145;28;20037;-74
2022/10/13 10:50:18;;;;;;;12.52;9.30;;;;;;;20.56;43.35;99995.72;5049799;28;20484;-74
2022/10/13 10:52:55;;;;;;;26.27;10.60;;;;;;;20.53;43.20;99993.66;5047819;28;20310;-75
2022/10/13 10:55:26;;;;;;;21.13;12.23;;;;;;;20.70;42.55;99986.53;5047703;28;20033;-75
2022/10/13 10:57:59;;;;;;;27.13;11.52;;;;;;;20.65;42.92;99986.06;5041526;28;20545;-74
2022/10/13 11:00:25;;;;;;;19.48;10.85;;;;;;;20.45;43.60;99983.44;5034913;28;20025;-75
2022/10/13 11:03:09;;;;;;;17.08;10.13;;;;;;;20.62;43.02;99976.28;5047515;28;20387;-75
2022/10/13 11:05:56;;;;;;;16.38;9.85;;;;;;;20.88;42.33;99971.66;5030662;28;20032;-74
2022/10/13 11:08:42;;;;;;;14.18;9.10;;;;;;;20.77;42.41;99971.56;5043392;28;20036;-75
2022/10/13 11:11:22;;;;;;;16.27;8.68;;;;;;;20.80;41.75;99967.09;5050694;28;20105;-75
2022/10/13 11:14:11;;;;;;;17.08;8.48;;;;;;;20.80;41.36;99962.25;5050395;28;20036;-74
2022/10/13 11:17:00;;;;;;;22.67;9.73;;;;;;;21.10;41.53;99951.94;5042666;28;20067;-74
2022/10/13 11:19:33;;;;;;;14.77;8.23;;;;;;;21.26;41.17;99951.63;5050123;28;20031;-74
2022/10/13 11:21:58;;;;;;;11.05;7.45;;;;;;;21.06;40.91;99945.38;5032473;28;20104;-75
2022/10/13 11:24:33;;;;;;;16.20;8.23;;;;;;;20.88;41.76;99944.06;5028720;28;20132;-74